sensor_id;sensor_type;location;lat;lon;timestamp;pressure;altitude;pressure_sealevel;temperature;humidity
70343;BME280;57767;42.068;24.752;2023-06-10T00:00:52;98298.63;;;20.32;57.64
70343;BME280;57767;42.068;24.752;2023-06-10T00:01:54;98332.72;;;20.56;57.55
70343;BME280;57767;42.068;24.752;2023-06-10T00:03:01;98335.41;;;20.56;57.81
70343;BME280;57767;42.068;24.752;2023-06-10T00:04:04;98329.50;;;20.54;57.32
70343;BME280;57767;42.068;24.752;2023-06-10T00:05:06;98289.53;;;20.28;58.18
70343;BME280;57767;42.068;24.752;2023-06-10T00:06:09;98322.88;;;20.51;58.38
70343;BME280;57767;42.068;24.752;2023-06-10T00:07:11;98291.94;;;20.30;58.49
70343;BME280;57767;42.068;24.752;2023-06-10T00:08:13;98342.09;;;20.58;58.62
70343;BME280;57767;42.068;24.752;2023-06-10T00:09:17;98335.91;;;20.58;59.01
70343;BME280;57767;42.068;24.752;2023-06-10T00:10:19;98332.44;;;20.57;58.03
70343;BME280;57767;42.068;24.752;2023-06-10T00:11:21;98328.22;;;20.51;57.55
70343;BME280;57767;42.068;24.752;2023-06-10T00:12:23;98337.53;;;20.59;58.04
70343;BME280;57767;42.068;24.752;2023-06-10T00:13:25;98338.03;;;20.61;58.20
70343;BME280;57767;42.068;24.752;2023-06-10T00:14:27;98337.25;;;20.60;58.67
70343;BME280;57767;42.068;24.752;2023-06-10T00:15:29;98338.84;;;20.61;58.81
70343;BME280;57767;42.068;24.752;2023-06-10T00:16:31;98313.31;;;20.40;59.02
70343;BME280;57767;42.068;24.752;2023-06-10T00:17:33;98335.34;;;20.61;59.00
70343;BME280;57767;42.068;24.752;2023-06-10T00:18:35;98343.41;;;20.61;58.83
70343;BME280;57767;42.068;24.752;2023-06-10T00:19:40;98335.91;;;20.58;58.80
70343;BME280;57767;42.068;24.752;2023-06-10T00:20:43;98340.72;;;20.61;58.91
70343;BME280;57767;42.068;24.752;2023-06-10T00:21:44;98318.88;;;20.49;58.92
70343;BME280;57767;42.068;24.752;2023-06-10T00:22:46;98326.34;;;20.52;59.15
70343;BME280;57767;42.068;24.752;2023-06-10T00:23:50;98339.69;;;20.57;59.70
70343;BME280;57767;42.068;24.752;2023-06-10T00:24:52;98333.81;;;20.55;59.75
70343;BME280;57767;42.068;24.752;2023-06-10T00:25:53;98330.59;;;20.53;59.68
70343;BME280;57767;42.068;24.752;2023-06-10T00:26:55;98322.56;;;20.53;60.52
70343;BME280;57767;42.068;24.752;2023-06-10T00:27:57;98322.09;;;20.46;60.95
70343;BME280;57767;42.068;24.752;2023-06-10T00:28:59;98320.53;;;20.39;60.97
70343;BME280;57767;42.068;24.752;2023-06-10T00:30:03;98321.88;;;20.42;60.81
70343;BME280;57767;42.068;24.752;2023-06-10T00:31:05;98322.94;;;20.41;60.52
70343;BME280;57767;42.068;24.752;2023-06-10T00:32:07;98309.69;;;20.26;60.72
70343;BME280;57767;42.068;24.752;2023-06-10T00:33:09;98325.34;;;20.43;60.28
70343;BME280;57767;42.068;24.752;2023-06-10T00:34:12;98327.47;;;20.46;60.05
70343;BME280;57767;42.068;24.752;2023-06-10T00:35:13;98322.09;;;20.46;59.79
70343;BME280;57767;42.068;24.752;2023-06-10T00:36:15;98323.72;;;20.47;59.88
70343;BME280;57767;42.068;24.752;2023-06-10T00:37:17;98325.59;;;20.46;60.01
70343;BME280;57767;42.068;24.752;2023-06-10T00:38:19;98304.25;;;20.36;59.38
70343;BME280;57767;42.068;24.752;2023-06-10T00:39:21;98326.91;;;20.49;59.52
70343;BME280;57767;42.068;24.752;2023-06-10T00:40:22;98305.59;;;20.33;59.98
70343;BME280;57767;42.068;24.752;2023-06-10T00:41:24;98314.09;;;20.41;60.82
70343;BME280;57767;42.068;24.752;2023-06-10T00:42:27;98320.59;;;20.34;60.18
70343;BME280;57767;42.068;24.752;2023-06-10T00:43:29;98321.94;;;20.32;59.92
70343;BME280;57767;42.068;24.752;2023-06-10T00:44:31;98313.91;;;20.32;60.10
70343;BME280;57767;42.068;24.752;2023-06-10T00:45:33;98315.78;;;20.31;60.25
70343;BME280;57767;42.068;24.752;2023-06-10T00:46:35;98314.53;;;20.24;60.31
70343;BME280;57767;42.068;24.752;2023-06-10T00:47:39;98316.94;;;20.25;60.28
70343;BME280;57767;42.068;24.752;2023-06-10T00:48:42;98324.63;;;20.32;59.70
70343;BME280;57767;42.068;24.752;2023-06-10T00:49:45;98308.69;;;20.17;60.08
70343;BME280;57767;42.068;24.752;2023-06-10T00:50:48;98328.66;;;20.29;59.61
70343;BME280;57767;42.068;24.752;2023-06-10T00:51:51;98328.66;;;20.29;59.55
70343;BME280;57767;42.068;24.752;2023-06-10T00:52:54;98295.13;;;20.08;59.25
70343;BME280;57767;42.068;24.752;2023-06-10T00:53:57;98323.91;;;20.26;59.88
70343;BME280;57767;42.068;24.752;2023-06-10T00:54:59;98327.66;;;20.25;60.59
70343;BME280;57767;42.068;24.752;2023-06-10T00:56:01;98328.47;;;20.26;60.66
70343;BME280;57767;42.068;24.752;2023-06-10T00:57:03;98328.47;;;20.26;60.46
70343;BME280;57767;42.068;24.752;2023-06-10T00:58:05;98320.50;;;20.16;60.66
70343;BME280;57767;42.068;24.752;2023-06-10T00:59:07;98334.09;;;20.24;60.48
70343;BME280;57767;42.068;24.752;2023-06-10T01:00:10;98337.84;;;20.23;60.84
70343;BME280;57767;42.068;24.752;2023-06-10T01:01:12;98334.66;;;20.21;60.76
70343;BME280;57767;42.068;24.752;2023-06-10T01:02:15;98331.19;;;20.21;60.64
70343;BME280;57767;42.068;24.752;2023-06-10T01:03:17;98330.66;;;20.19;60.44
70343;BME280;57767;42.068;24.752;2023-06-10T01:04:20;98333.63;;;20.17;60.11
70343;BME280;57767;42.068;24.752;2023-06-10T01:05:23;98326.66;;;20.16;60.01
70343;BME280;57767;42.068;24.752;2023-06-10T01:11:07;98322.53;;;20.00;59.59
70343;BME280;57767;42.068;24.752;2023-06-10T01:12:16;98328.47;;;19.92;60.17
70343;BME280;57767;42.068;24.752;2023-06-10T01:13:22;98330.34;;;19.91;60.14
70343;BME280;57767;42.068;24.752;2023-06-10T01:14:26;98332.25;;;19.91;60.31
70343;BME280;57767;42.068;24.752;2023-06-10T01:15:31;98326.34;;;19.89;60.55
70343;BME280;57767;42.068;24.752;2023-06-10T01:16:34;98330.94;;;19.88;60.63
70343;BME280;57767;42.068;24.752;2023-06-10T01:18:55;98335.78;;;19.86;60.66
70343;BME280;57767;42.068;24.752;2023-06-10T01:19:58;98329.63;;;19.86;61.17
70343;BME280;57767;42.068;24.752;2023-06-10T01:21:00;98298.19;;;19.62;60.89
70343;BME280;57767;42.068;24.752;2023-06-10T01:22:03;98333.94;;;19.82;61.00
70343;BME280;57767;42.068;24.752;2023-06-10T01:23:05;98291.59;;;19.50;61.08
70343;BME280;57767;42.068;24.752;2023-06-10T01:24:07;98332.88;;;19.78;61.09
70343;BME280;57767;42.068;24.752;2023-06-10T01:25:09;98333.69;;;19.78;60.18
70343;BME280;57767;42.068;24.752;2023-06-10T01:26:13;98317.16;;;19.66;61.07
70343;BME280;57767;42.068;24.752;2023-06-10T01:27:19;98319.84;;;19.66;61.86
70343;BME280;57767;42.068;24.752;2023-06-10T01:29:43;98336.78;;;19.61;61.32
70343;BME280;57767;42.068;24.752;2023-06-10T01:32:25;98337.94;;;19.40;61.20
70343;BME280;57767;42.068;24.752;2023-06-10T01:33:32;98339.59;;;19.36;61.71
70343;BME280;57767;42.068;24.752;2023-06-10T01:34:35;98335.31;;;19.35;61.96
70343;BME280;57767;42.068;24.752;2023-06-10T01:35:39;98324.66;;;19.25;61.68
70343;BME280;57767;42.068;24.752;2023-06-10T01:36:44;98334.25;;;19.31;62.64
70343;BME280;57767;42.068;24.752;2023-06-10T01:37:48;98327.84;;;19.27;62.58
70343;BME280;57767;42.068;24.752;2023-06-10T01:38:53;98278.00;;;18.92;62.46
70343;BME280;57767;42.068;24.752;2023-06-10T01:39:57;98343.09;;;19.26;62.03
70343;BME280;57767;42.068;24.752;2023-06-10T01:41:00;98338.56;;;19.27;62.13
70343;BME280;57767;42.068;24.752;2023-06-10T01:42:03;98343.91;;;19.27;62.23
70343;BME280;57767;42.068;24.752;2023-06-10T01:43:06;98338.88;;;19.20;61.86
70343;BME280;57767;42.068;24.752;2023-06-10T01:44:08;98316.47;;;19.06;62.93
70343;BME280;57767;42.068;24.752;2023-06-10T01:45:10;98351.72;;;19.23;62.84
70343;BME280;57767;42.068;24.752;2023-06-10T01:46:13;98348.22;;;19.23;62.89
70343;BME280;57767;42.068;24.752;2023-06-10T01:47:15;98348.22;;;19.23;63.07
70343;BME280;57767;42.068;24.752;2023-06-10T01:48:17;98335.41;;;19.15;63.07
70343;BME280;57767;42.068;24.752;2023-06-10T01:49:18;98320.75;;;19.02;64.11
70343;BME280;57767;42.068;24.752;2023-06-10T01:50:20;98341.63;;;19.05;64.35
70343;BME280;57767;42.068;24.752;2023-06-10T01:51:22;98343.81;;;18.93;64.99
70343;BME280;57767;42.068;24.752;2023-06-10T01:52:25;98321.19;;;18.65;65.42
70343;BME280;57767;42.068;24.752;2023-06-10T01:53:26;98344.94;;;18.77;65.02
70343;BME280;57767;42.068;24.752;2023-06-10T01:54:28;98346.31;;;18.74;65.87
70343;BME280;57767;42.068;24.752;2023-06-10T01:55:31;98332.16;;;18.64;66.20
70343;BME280;57767;42.068;24.752;2023-06-10T01:56:33;98349.53;;;18.66;66.33
70343;BME280;57767;42.068;24.752;2023-06-10T01:57:35;98348.19;;;18.64;66.53
70343;BME280;57767;42.068;24.752;2023-06-10T01:58:36;98352.72;;;18.68;66.38
70343;BME280;57767;42.068;24.752;2023-06-10T01:59:38;98318.56;;;18.40;66.84
70343;BME280;57767;42.068;24.752;2023-06-10T02:00:40;98347.94;;;18.60;66.74
70343;BME280;57767;42.068;24.752;2023-06-10T02:01:42;98354.88;;;18.56;66.60
70343;BME280;57767;42.068;24.752;2023-06-10T02:02:44;98327.41;;;18.35;66.52
70343;BME280;57767;42.068;24.752;2023-06-10T02:03:46;98354.88;;;18.51;66.65
70343;BME280;57767;42.068;24.752;2023-06-10T02:04:48;98350.34;;;18.51;67.02
70343;BME280;57767;42.068;24.752;2023-06-10T02:05:49;98357.31;;;18.47;67.27
70343;BME280;57767;42.068;24.752;2023-06-10T02:06:52;98354.09;;;18.45;67.48
70343;BME280;57767;42.068;24.752;2023-06-10T02:07:54;98354.91;;;18.46;67.26
70343;BME280;57767;42.068;24.752;2023-06-10T02:08:56;98350.63;;;18.40;67.35
70343;BME280;57767;42.068;24.752;2023-06-10T02:09:58;98356.53;;;18.32;67.40
70343;BME280;57767;42.068;24.752;2023-06-10T02:11:00;98361.06;;;18.31;67.82
70343;BME280;57767;42.068;24.752;2023-06-10T02:12:03;98350.66;;;18.24;67.76
70343;BME280;57767;42.068;24.752;2023-06-10T02:13:05;98354.16;;;18.20;68.09
70343;BME280;57767;42.068;24.752;2023-06-10T02:14:07;98350.16;;;18.22;67.62
70343;BME280;57767;42.068;24.752;2023-06-10T02:15:08;98349.56;;;18.25;67.44
70343;BME280;57767;42.068;24.752;2023-06-10T02:16:11;98359.75;;;18.29;67.42
70343;BME280;57767;42.068;24.752;2023-06-10T02:17:14;98348.50;;;18.26;67.35
70343;BME280;57767;42.068;24.752;2023-06-10T02:18:16;98296.19;;;17.95;67.23
70343;BME280;57767;42.068;24.752;2023-06-10T02:19:17;98352.78;;;18.33;67.31
70343;BME280;57767;42.068;24.752;2023-06-10T02:20:23;98350.66;;;18.30;67.50
70343;BME280;57767;42.068;24.752;2023-06-10T02:21:24;98351.47;;;18.35;66.93
70343;BME280;57767;42.068;24.752;2023-06-10T02:22:26;98351.69;;;18.39;66.61
70343;BME280;57767;42.068;24.752;2023-06-10T02:23:28;98350.09;;;18.43;66.52
70343;BME280;57767;42.068;24.752;2023-06-10T02:24:30;98329.28;;;18.24;66.86
70343;BME280;57767;42.068;24.752;2023-06-10T02:25:31;98347.44;;;18.33;66.39
70343;BME280;57767;42.068;24.752;2023-06-10T02:26:33;98352.00;;;18.32;66.62
70343;BME280;57767;42.068;24.752;2023-06-10T02:27:35;98346.91;;;18.36;66.70
70343;BME280;57767;42.068;24.752;2023-06-10T02:28:37;98343.16;;;18.37;66.84
70343;BME280;57767;42.068;24.752;2023-06-10T02:29:39;98320.22;;;18.15;67.05
70343;BME280;57767;42.068;24.752;2023-06-10T02:30:41;98344.47;;;18.39;66.94
70343;BME280;57767;42.068;24.752;2023-06-10T02:31:43;98344.75;;;18.43;66.73
70343;BME280;57767;42.068;24.752;2023-06-10T02:32:45;98347.94;;;18.40;66.91
70343;BME280;57767;42.068;24.752;2023-06-10T02:33:50;98347.41;;;18.43;66.65
70343;BME280;57767;42.068;24.752;2023-06-10T02:34:51;98312.97;;;18.26;66.91
70343;BME280;57767;42.068;24.752;2023-06-10T02:35:54;98332.19;;;18.38;67.50
70343;BME280;57767;42.068;24.752;2023-06-10T02:36:56;98319.38;;;18.35;67.05
70343;BME280;57767;42.068;24.752;2023-06-10T02:37:58;98334.84;;;18.38;67.28
70343;BME280;57767;42.068;24.752;2023-06-10T02:39:00;98341.06;;;18.23;67.32
70343;BME280;57767;42.068;24.752;2023-06-10T02:40:02;98328.78;;;18.07;67.99
70343;BME280;57767;42.068;24.752;2023-06-10T02:41:05;98336.25;;;18.20;68.06
70343;BME280;57767;42.068;24.752;2023-06-10T02:42:07;98337.84;;;18.21;67.92
70343;BME280;57767;42.068;24.752;2023-06-10T02:43:09;98346.63;;;18.27;67.51
70343;BME280;57767;42.068;24.752;2023-06-10T02:44:11;98289.53;;;17.98;67.22
70343;BME280;57767;42.068;24.752;2023-06-10T02:45:12;98340.50;;;18.32;67.57
70343;BME280;57767;42.068;24.752;2023-06-10T02:46:14;98318.59;;;18.19;67.12
70343;BME280;57767;42.068;24.752;2023-06-10T02:47:16;98335.16;;;18.32;67.56
70343;BME280;57767;42.068;24.752;2023-06-10T02:48:18;98347.41;;;18.38;66.83
70343;BME280;57767;42.068;24.752;2023-06-10T02:49:20;98345.28;;;18.40;67.19
70343;BME280;57767;42.068;24.752;2023-06-10T02:50:22;98339.94;;;18.40;67.45
70343;BME280;57767;42.068;24.752;2023-06-10T02:51:23;98345.00;;;18.41;66.33
70343;BME280;57767;42.068;24.752;2023-06-10T02:52:25;98308.19;;;18.13;67.81
70343;BME280;57767;42.068;24.752;2023-06-10T02:53:27;98350.91;;;18.38;66.63
70343;BME280;57767;42.068;24.752;2023-06-10T02:54:29;98327.94;;;18.27;68.58
70343;BME280;57767;42.068;24.752;2023-06-10T02:55:31;98310.59;;;18.14;67.88
70343;BME280;57767;42.068;24.752;2023-06-10T02:56:33;98322.31;;;18.29;67.69
70343;BME280;57767;42.068;24.752;2023-06-10T02:57:36;98356.22;;;18.53;67.07
70343;BME280;57767;42.068;24.752;2023-06-10T02:58:38;98360.50;;;18.54;66.38
70343;BME280;57767;42.068;24.752;2023-06-10T02:59:40;98351.41;;;18.50;66.49
70343;BME280;57767;42.068;24.752;2023-06-10T03:00:42;98361.81;;;18.52;66.65
70343;BME280;57767;42.068;24.752;2023-06-10T03:01:46;98350.59;;;18.50;66.74
70343;BME280;57767;42.068;24.752;2023-06-10T03:02:48;98343.16;;;18.42;66.36
70343;BME280;57767;42.068;24.752;2023-06-10T03:03:50;98355.41;;;18.53;66.37
70343;BME280;57767;42.068;24.752;2023-06-10T03:04:52;98367.19;;;18.37;67.45
70343;BME280;57767;42.068;24.752;2023-06-10T03:05:55;98286.34;;;17.85;68.17
70343;BME280;57767;42.068;24.752;2023-06-10T03:06:58;98362.41;;;18.34;68.51
70343;BME280;57767;42.068;24.752;2023-06-10T03:08:02;98361.34;;;18.30;68.30
70343;BME280;57767;42.068;24.752;2023-06-10T03:09:03;98327.97;;;18.02;68.58
70343;BME280;57767;42.068;24.752;2023-06-10T03:10:11;98372.03;;;18.24;68.90
70343;BME280;57767;42.068;24.752;2023-06-10T03:11:13;98365.63;;;18.20;68.59
70343;BME280;57767;42.068;24.752;2023-06-10T03:12:15;98354.13;;;18.15;69.05
70343;BME280;57767;42.068;24.752;2023-06-10T03:13:17;98361.63;;;18.23;69.16
70343;BME280;57767;42.068;24.752;2023-06-10T03:14:19;98365.63;;;18.20;69.37
70343;BME280;57767;42.068;24.752;2023-06-10T03:15:21;98365.63;;;18.20;68.93
70343;BME280;57767;42.068;24.752;2023-06-10T03:16:23;98372.31;;;18.23;69.00
70343;BME280;57767;42.068;24.752;2023-06-10T03:17:26;98373.13;;;18.23;68.95
70343;BME280;57767;42.068;24.752;2023-06-10T03:18:28;98367.78;;;18.23;68.58
70343;BME280;57767;42.068;24.752;2023-06-10T03:19:30;98370.97;;;18.31;68.55
70343;BME280;57767;42.068;24.752;2023-06-10T03:20:32;98367.75;;;18.34;68.59
70343;BME280;57767;42.068;24.752;2023-06-10T03:21:38;98371.47;;;18.38;68.43
70343;BME280;57767;42.068;24.752;2023-06-10T03:22:40;98336.25;;;18.20;68.74
70343;BME280;57767;42.068;24.752;2023-06-10T03:23:42;98380.31;;;18.48;68.67
70343;BME280;57767;42.068;24.752;2023-06-10T03:24:44;98379.47;;;18.53;68.39
70343;BME280;57767;42.068;24.752;2023-06-10T03:25:48;98367.19;;;18.57;67.17
70343;BME280;57767;42.068;24.752;2023-06-10T03:26:49;98373.31;;;18.63;67.29
70343;BME280;57767;42.068;24.752;2023-06-10T03:27:51;98374.66;;;18.65;67.50
70343;BME280;57767;42.068;24.752;2023-06-10T03:28:53;98371.44;;;18.68;67.55
70343;BME280;57767;42.068;24.752;2023-06-10T03:29:55;98375.19;;;18.72;67.11
70343;BME280;57767;42.068;24.752;2023-06-10T03:30:57;98355.41;;;18.63;67.18
70343;BME280;57767;42.068;24.752;2023-06-10T03:31:59;98361.28;;;18.70;67.60
70343;BME280;57767;42.068;24.752;2023-06-10T03:33:01;98373.28;;;18.78;67.57
70343;BME280;57767;42.068;24.752;2023-06-10T03:34:03;98374.34;;;18.77;67.69
70343;BME280;57767;42.068;24.752;2023-06-10T03:35:05;98375.72;;;18.74;67.78
70343;BME280;57767;42.068;24.752;2023-06-10T03:36:08;98367.72;;;18.69;67.78
70343;BME280;57767;42.068;24.752;2023-06-10T03:37:11;98367.44;;;18.71;67.84
70343;BME280;57767;42.068;24.752;2023-06-10T03:38:13;98369.31;;;18.70;68.22
70343;BME280;57767;42.068;24.752;2023-06-10T03:39:14;98369.31;;;18.65;69.17
70343;BME280;57767;42.068;24.752;2023-06-10T03:40:16;98373.31;;;18.63;69.01
70343;BME280;57767;42.068;24.752;2023-06-10T03:41:18;98373.63;;;18.61;68.98
70343;BME280;57767;42.068;24.752;2023-06-10T03:42:20;98362.13;;;18.60;68.81
70343;BME280;57767;42.068;24.752;2023-06-10T03:43:22;98370.38;;;18.64;69.06
70343;BME280;57767;42.068;24.752;2023-06-10T03:44:24;98373.59;;;18.71;69.06
70343;BME280;57767;42.068;24.752;2023-06-10T03:45:27;98373.59;;;18.66;69.20
70343;BME280;57767;42.068;24.752;2023-06-10T03:46:33;98351.69;;;18.49;69.58
70343;BME280;57767;42.068;24.752;2023-06-10T03:47:36;98376.53;;;18.65;69.99
70343;BME280;57767;42.068;24.752;2023-06-10T03:48:38;98354.38;;;18.49;69.80
70343;BME280;57767;42.068;24.752;2023-06-10T03:49:41;98376.81;;;18.63;69.87
70343;BME280;57767;42.068;24.752;2023-06-10T03:50:43;98378.16;;;18.60;70.45
70343;BME280;57767;42.068;24.752;2023-06-10T03:51:44;98382.16;;;18.63;70.47
70343;BME280;57767;42.068;24.752;2023-06-10T03:52:46;98376.53;;;18.70;70.37
70343;BME280;57767;42.068;24.752;2023-06-10T03:53:48;98379.19;;;18.75;70.01
70343;BME280;57767;42.068;24.752;2023-06-10T03:54:50;98386.38;;;18.84;69.56
70343;BME280;57767;42.068;24.752;2023-06-10T03:55:52;98381.28;;;18.88;69.33
70343;BME280;57767;42.068;24.752;2023-06-10T03:56:54;98353.81;;;18.72;70.68
70343;BME280;57767;42.068;24.752;2023-06-10T03:57:55;98389.81;;;18.95;71.12
70343;BME280;57767;42.068;24.752;2023-06-10T03:58:57;98385.81;;;18.98;71.18
70343;BME280;57767;42.068;24.752;2023-06-10T03:59:59;98383.38;;;19.01;71.06
70343;BME280;57767;42.068;24.752;2023-06-10T04:01:01;98390.03;;;19.09;70.76
70343;BME280;57767;42.068;24.752;2023-06-10T04:02:03;98370.78;;;19.02;70.00
70343;BME280;57767;42.068;24.752;2023-06-10T04:03:07;98378.75;;;19.17;70.33
70343;BME280;57767;42.068;24.752;2023-06-10T04:04:14;98344.56;;;19.04;70.34
70343;BME280;57767;42.068;24.752;2023-06-10T04:05:21;98379.22;;;19.29;70.13
70343;BME280;57767;42.068;24.752;2023-06-10T04:06:23;98375.47;;;19.30;69.95
70343;BME280;57767;42.068;24.752;2023-06-10T04:07:27;98373.59;;;19.30;70.53
70343;BME280;57767;42.068;24.752;2023-06-10T04:08:31;98374.94;;;19.28;70.55
70343;BME280;57767;42.068;24.752;2023-06-10T04:09:36;98388.09;;;19.24;70.09
70343;BME280;57767;42.068;24.752;2023-06-10T04:10:38;98372.28;;;19.28;70.70
70343;BME280;57767;42.068;24.752;2023-06-10T04:11:40;98371.75;;;19.26;70.66
70343;BME280;57767;42.068;24.752;2023-06-10T04:12:42;98374.13;;;19.32;71.33
70343;BME280;57767;42.068;24.752;2023-06-10T04:13:44;98375.47;;;19.30;70.27
70343;BME280;57767;42.068;24.752;2023-06-10T04:14:45;98369.06;;;19.31;69.51
70343;BME280;57767;42.068;24.752;2023-06-10T04:15:47;98350.13;;;19.17;69.51
70343;BME280;57767;42.068;24.752;2023-06-10T04:16:49;98367.16;;;19.37;68.95
70343;BME280;57767;42.068;24.752;2023-06-10T04:17:51;98371.13;;;19.39;68.86
70343;BME280;57767;42.068;24.752;2023-06-10T04:18:54;98375.41;;;19.45;68.85
70343;BME280;57767;42.068;24.752;2023-06-10T04:19:57;98374.31;;;19.46;70.48
70343;BME280;57767;42.068;24.752;2023-06-10T04:20:59;98372.72;;;19.45;71.15
70343;BME280;57767;42.068;24.752;2023-06-10T04:22:01;98368.97;;;19.46;71.78
70343;BME280;57767;42.068;24.752;2023-06-10T04:23:05;98363.63;;;19.46;72.06
70343;BME280;57767;42.068;24.752;2023-06-10T04:24:07;98347.63;;;19.36;72.12
70343;BME280;57767;42.068;24.752;2023-06-10T04:25:09;98371.63;;;19.51;72.71
70343;BME280;57767;42.068;24.752;2023-06-10T04:26:12;98343.88;;;19.37;72.53
70343;BME280;57767;42.068;24.752;2023-06-10T04:27:14;98368.13;;;19.61;72.41
70343;BME280;57767;42.068;24.752;2023-06-10T04:28:16;98373.13;;;19.67;72.60
70343;BME280;57767;42.068;24.752;2023-06-10T04:29:17;98372.56;;;19.76;73.00
70343;BME280;57767;42.068;24.752;2023-06-10T04:30:19;98369.03;;;19.80;72.41
70343;BME280;57767;42.068;24.752;2023-06-10T04:31:21;98370.88;;;19.85;72.49
70343;BME280;57767;42.068;24.752;2023-06-10T04:32:23;98363.13;;;19.83;72.84
70343;BME280;57767;42.068;24.752;2023-06-10T04:33:25;98371.88;;;19.94;72.66
70343;BME280;57767;42.068;24.752;2023-06-10T04:34:27;98367.28;;;19.99;71.49
70343;BME280;57767;42.068;24.752;2023-06-10T04:35:29;98368.56;;;20.07;71.85
70343;BME280;57767;42.068;24.752;2023-06-10T04:36:31;98349.03;;;20.01;71.39
70343;BME280;57767;42.068;24.752;2023-06-10T04:37:33;98345.28;;;20.02;70.86
70343;BME280;57767;42.068;24.752;2023-06-10T04:38:34;98357.00;;;20.12;69.48
70343;BME280;57767;42.068;24.752;2023-06-10T04:39:36;98369.75;;;20.25;69.59
70343;BME280;57767;42.068;24.752;2023-06-10T04:40:39;98365.94;;;20.31;69.97
70343;BME280;57767;42.068;24.752;2023-06-10T04:41:41;98365.91;;;20.36;70.64
70343;BME280;57767;42.068;24.752;2023-06-10T04:42:43;98359.19;;;20.38;70.90
70343;BME280;57767;42.068;24.752;2023-06-10T04:43:45;98369.28;;;20.47;71.00
70343;BME280;57767;42.068;24.752;2023-06-10T04:44:47;98361.25;;;20.47;70.49
70343;BME280;57767;42.068;24.752;2023-06-10T04:45:48;98316.94;;;20.25;71.15
70343;BME280;57767;42.068;24.752;2023-06-10T04:46:50;98368.34;;;20.61;70.92
70343;BME280;57767;42.068;24.752;2023-06-10T04:47:52;98361.03;;;20.67;69.27
70343;BME280;57767;42.068;24.752;2023-06-10T04:48:57;98362.06;;;20.71;68.53
70343;BME280;57767;42.068;24.752;2023-06-10T04:50:03;98361.50;;;20.74;67.18
70343;BME280;57767;42.068;24.752;2023-06-10T04:51:05;98340.38;;;20.67;68.25
70343;BME280;57767;42.068;24.752;2023-06-10T04:52:07;98364.06;;;20.84;68.21
70343;BME280;57767;42.068;24.752;2023-06-10T04:53:09;98358.19;;;20.82;66.92
70343;BME280;57767;42.068;24.752;2023-06-10T04:54:11;98364.22;;;20.93;66.39
70343;BME280;57767;42.068;24.752;2023-06-10T04:55:12;98363.09;;;20.99;66.34
70343;BME280;57767;42.068;24.752;2023-06-10T04:56:14;98357.91;;;21.02;63.49
70343;BME280;57767;42.068;24.752;2023-06-10T04:57:17;98361.59;;;21.12;67.02
70343;BME280;57767;42.068;24.752;2023-06-10T04:58:20;98363.09;;;21.18;65.36
70343;BME280;57767;42.068;24.752;2023-06-10T04:59:21;98365.69;;;21.28;65.81
70343;BME280;57767;42.068;24.752;2023-06-10T05:00:23;98356.91;;;21.41;66.31
70343;BME280;57767;42.068;24.752;2023-06-10T05:01:25;98362.94;;;21.52;65.75
70343;BME280;57767;42.068;24.752;2023-06-10T05:02:27;98359.81;;;21.63;64.94
70343;BME280;57767;42.068;24.752;2023-06-10T05:03:29;98362.06;;;21.75;63.19
70343;BME280;57767;42.068;24.752;2023-06-10T05:04:31;98330.84;;;21.60;63.07
70343;BME280;57767;42.068;24.752;2023-06-10T05:05:33;98334.09;;;21.76;63.92
70343;BME280;57767;42.068;24.752;2023-06-10T05:06:34;98361.97;;;21.99;62.46
70343;BME280;57767;42.068;24.752;2023-06-10T05:07:37;98339.22;;;21.91;60.91
70343;BME280;57767;42.068;24.752;2023-06-10T05:08:39;98355.91;;;22.07;60.76
70343;BME280;57767;42.068;24.752;2023-06-10T05:09:41;98347.84;;;22.07;61.00
70343;BME280;57767;42.068;24.752;2023-06-10T05:10:43;98355.38;;;22.24;61.57
70343;BME280;57767;42.068;24.752;2023-06-10T05:11:45;98361.00;;;22.41;62.86
70343;BME280;57767;42.068;24.752;2023-06-10T05:12:47;98363.50;;;22.51;62.84
70343;BME280;57767;42.068;24.752;2023-06-10T05:13:49;98338.19;;;22.52;64.28
70343;BME280;57767;42.068;24.752;2023-06-10T05:14:51;98336.97;;;22.72;65.79
70343;BME280;57767;42.068;24.752;2023-06-10T05:15:53;98355.25;;;23.02;63.22
70343;BME280;57767;42.068;24.752;2023-06-10T05:16:58;98358.59;;;23.21;60.09
70343;BME280;57767;42.068;24.752;2023-06-10T05:17:59;98361.41;;;23.30;59.96
70343;BME280;57767;42.068;24.752;2023-06-10T05:19:04;98359.88;;;23.38;60.20
70343;BME280;57767;42.068;24.752;2023-06-10T05:20:09;98341.13;;;23.33;60.00
70343;BME280;57767;42.068;24.752;2023-06-10T05:21:11;98359.75;;;23.56;57.57
70343;BME280;57767;42.068;24.752;2023-06-10T05:22:13;98337.50;;;23.51;56.86
70343;BME280;57767;42.068;24.752;2023-06-10T05:23:15;98363.28;;;23.79;56.27
70343;BME280;57767;42.068;24.752;2023-06-10T05:24:17;98304.88;;;23.52;56.14
70343;BME280;57767;42.068;24.752;2023-06-10T05:25:19;98349.41;;;23.94;57.25
70343;BME280;57767;42.068;24.752;2023-06-10T05:26:21;98351.00;;;23.96;54.37
70343;BME280;57767;42.068;24.752;2023-06-10T05:27:23;98358.88;;;24.06;55.50
70343;BME280;57767;42.068;24.752;2023-06-10T05:28:26;98350.03;;;24.14;56.86
70343;BME280;57767;42.068;24.752;2023-06-10T05:29:27;98357.66;;;24.20;56.22
70343;BME280;57767;42.068;24.752;2023-06-10T05:30:29;98357.66;;;24.20;54.25
70343;BME280;57767;42.068;24.752;2023-06-10T05:31:31;98357.88;;;24.24;53.60
70343;BME280;57767;42.068;24.752;2023-06-10T05:32:35;98343.53;;;24.15;53.51
70343;BME280;57767;42.068;24.752;2023-06-10T05:33:37;98351.88;;;24.27;54.34
70343;BME280;57767;42.068;24.752;2023-06-10T05:34:39;98359.81;;;24.32;54.73
70343;BME280;57767;42.068;24.752;2023-06-10T05:35:41;98348.59;;;24.39;53.40